Time;durP1;ratioP1;P1;durP2;ratioP2;P2;SDS_P1;SDS_P2;PMS_P1;PMS_P2;Temp;Humidity;BMP_temperature;BMP_pressure;BME280_temperature;BME280_humidity;BME280_pressure;Samples;Min_cycle;Max_cycle;Signal;HPM_P1;HPM_P2
2023/07/08 00:00:19;;;;;;;17.70;16.60;;;17.50;99.90;;;;;;5090637;28;20616;-52
2023/07/08 00:02:45;;;;;;;17.53;16.43;;;17.40;99.90;;;;;;5090382;28;20208;-51
2023/07/08 00:05:14;;;;;;;17.73;16.63;;;17.30;99.90;;;;;;5072474;28;20439;-47
2023/07/08 00:07:40;;;;;;;18.40;17.10;;;17.30;99.90;;;;;;5069851;28;20955;-49
2023/07/08 00:10:21;;;;;;;17.53;16.43;;;17.30;99.90;;;;;;5070501;28;20769;-48
2023/07/08 00:12:50;;;;;;;17.33;16.27;;;17.20;99.90;;;;;;5070044;28;20431;-46
2023/07/08 00:15:16;;;;;;;16.67;15.60;;;17.10;1.00;;;;;;5074759;28;20530;-49
2023/07/08 00:17:43;;;;;;;17.30;16.20;;;17.10;1.00;;;;;;5068486;28;20501;-48
2023/07/08 00:20:23;;;;;;;17.50;16.20;;;17.10;1.00;;;;;;5070729;28;20540;-48
2023/07/08 00:22:52;;;;;;;18.30;17.20;;;17.00;1.00;;;;;;5079487;28;20470;-50
2023/07/08 00:25:19;;;;;;;18.23;17.00;;;16.90;1.00;;;;;;5089937;28;21076;-47
2023/07/08 00:27:47;;;;;;;18.10;16.80;;;16.90;1.00;;;;;;5090357;28;20421;-43
2023/07/08 00:30:34;;;;;;;17.87;16.77;;;16.80;35.70;;;;;;5079229;28;20506;-46
2023/07/08 00:32:59;;;;;;;17.47;16.47;;;16.70;97.40;;;;;;5089884;28;20430;-47
2023/07/08 00:35:38;;;;;;;18.40;17.10;;;16.70;99.60;;;;;;5090040;28;20430;-50
2023/07/08 00:38:21;;;;;;;17.87;16.77;;;16.70;99.90;;;;;;5083629;28;20420;-46
2023/07/08 00:41:01;;;;;;;17.70;16.50;;;16.60;99.90;;;;;;5071815;28;20439;-50
2023/07/08 00:43:49;;;;;;;16.23;15.33;;;16.60;99.90;;;;;;5088166;28;20512;-53
2023/07/08 00:46:27;;;;;;;17.53;16.43;;;16.60;99.90;;;;;;5084683;28;20942;-52
2023/07/08 00:49:07;;;;;;;17.17;16.17;;;16.60;99.90;;;;;;5073794;28;20423;-48
2023/07/08 00:51:38;;;;;;;17.73;16.63;;;16.50;99.90;;;;;;5073815;28;20487;-47
2023/07/08 00:54:13;;;;;;;17.20;16.10;;;16.50;99.90;;;;;;5083709;28;20430;-46
2023/07/08 00:56:41;;;;;;;18.10;16.90;;;16.40;99.90;;;;;;5083313;28;20454;-53
2023/07/08 00:59:32;;;;;;;17.80;16.70;;;16.40;99.90;;;;;;5086151;28;20926;-44
2023/07/08 01:02:01;;;;;;;18.70;17.10;;;16.40;1.00;;;;;;5055045;28;20932;-51
2023/07/08 01:04:50;;;;;;;18.30;17.20;;;16.30;45.10;;;;;;5085792;28;20445;-52
2023/07/08 01:07:21;;;;;;;18.53;17.23;;;16.20;1.00;;;;;;5089547;28;20467;-48
2023/07/08 01:09:50;;;;;;;18.50;17.20;;;16.20;47.50;;;;;;5074572;28;20435;-48
2023/07/08 01:12:21;;;;;;;17.93;16.63;;;16.20;91.40;;;;;;5068698;28;20445;-50
2023/07/08 01:14:48;;;;;;;16.90;15.90;;;16.10;1.00;;;;;;5078127;28;21031;-51
2023/07/08 01:17:13;;;;;;;17.73;16.63;;;16.10;1.00;;;;;;5080730;28;20537;-50
2023/07/08 01:19:44;;;;;;;17.50;16.30;;;16.10;99.90;;;;;;5085962;28;20996;-50
2023/07/08 01:22:10;;;;;;;17.93;16.73;;;16.00;99.90;;;;;;5067716;28;20236;-47
2023/07/08 01:24:40;;;;;;;17.20;16.10;;;16.00;99.90;;;;;;5076570;28;20474;-49
2023/07/08 01:27:10;;;;;;;17.30;16.20;;;16.00;99.90;;;;;;5077607;28;20423;-50
2023/07/08 01:29:35;;;;;;;17.90;16.70;;;15.90;99.90;;;;;;5086714;28;20418;-51
2023/07/08 01:32:05;;;;;;;18.20;17.00;;;15.90;1.00;;;;;;5069819;28;20446;-47
2023/07/08 01:34:34;;;;;;;18.03;16.93;;;15.90;99.90;;;;;;5081927;28;20174;-49
2023/07/08 01:37:03;;;;;;;18.57;17.27;;;15.90;1.00;;;;;;5071017;28;20466;-47
2023/07/08 01:39:30;;;;;;;17.80;16.70;;;15.80;99.90;;;;;;5086739;28;20427;-49
2023/07/08 01:41:57;;;;;;;16.67;15.60;;;15.80;99.90;;;;;;5069718;28;20442;-44
2023/07/08 01:44:36;;;;;;;17.37;16.27;;;15.80;99.90;;;;;;5079883;28;20789;-49
2023/07/08 01:47:13;;;;;;;17.10;15.83;;;15.80;99.90;;;;;;5077517;28;20546;-47
2023/07/08 01:49:40;;;;;;;17.23;16.13;;;15.70;99.90;;;;;;5073367;28;20415;-46
2023/07/08 01:52:07;;;;;;;16.97;15.70;;;15.80;1.00;;;;;;5071399;28;20414;-47
2023/07/08 01:54:32;;;;;;;17.70;16.50;;;15.70;1.00;;;;;;5082465;28;20430;-44
2023/07/08 01:56:58;;;;;;;16.80;15.80;;;15.70;1.00;;;;;;5076809;28;20456;-49
2023/07/08 01:59:24;;;;;;;17.57;16.37;;;15.60;99.90;;;;;;5069059;28;20235;-48
2023/07/08 02:01:54;;;;;;;17.53;16.43;;;15.60;99.90;;;;;;5077460;28;20225;-51
2023/07/08 02:04:24;;;;;;;18.57;17.27;;;15.60;99.90;;;;;;5071263;28;20451;-52
2023/07/08 02:06:58;;;;;;;18.20;16.87;;;15.50;99.90;;;;;;5066932;28;20435;-44
2023/07/08 02:09:24;;;;;;;17.33;16.23;;;15.60;99.90;;;;;;5071240;28;20420;-48
2023/07/08 02:11:51;;;;;;;17.37;16.27;;;15.50;99.90;;;;;;5084815;28;20842;-48
2023/07/08 02:14:16;;;;;;;17.43;16.33;;;15.60;1.00;;;;;;5080139;28;21058;-47
2023/07/08 02:16:42;;;;;;;17.90;16.60;;;15.50;1.00;;;;;;5077144;28;20474;-47
2023/07/08 02:19:08;;;;;;;17.27;16.17;;;15.50;99.90;;;;;;5068868;28;20181;-50
2023/07/08 02:21:34;;;;;;;17.50;16.40;;;15.50;99.90;;;;;;5081462;28;20181;-50
2023/07/08 02:24:00;;;;;;;17.37;16.17;;;15.50;99.90;;;;;;5092200;28;20466;-51
2023/07/08 02:26:26;;;;;;;17.37;16.20;;;15.50;99.90;;;;;;5092488;28;20513;-48
2023/07/08 02:28:52;;;;;;;16.90;15.80;;;15.40;19.00;;;;;;5081224;28;20442;-47
2023/07/08 02:31:17;;;;;;;17.67;16.57;;;15.40;97.00;;;;;;5072248;28;20805;-51
2023/07/08 02:33:43;;;;;;;17.57;16.47;;;15.40;8.90;;;;;;5087196;28;20203;-47
2023/07/08 02:36:09;;;;;;;18.03;16.70;;;15.40;99.90;;;;;;5092920;28;20200;-47
2023/07/08 02:38:34;;;;;;;18.00;16.77;;;15.30;99.90;;;;;;5092198;28;20223;-46
2023/07/08 02:41:00;;;;;;;17.47;16.30;;;15.30;1.00;;;;;;5071669;28;20234;-46
2023/07/08 02:43:26;;;;;;;17.63;16.37;;;15.30;1.00;;;;;;5083251;28;20253;-49
2023/07/08 02:45:52;;;;;;;17.47;16.37;;;15.30;1.00;;;;;;5078695;28;20642;-49
2023/07/08 02:48:19;;;;;;;17.00;15.80;;;15.30;99.90;;;;;;5074704;28;20447;-49
2023/07/08 02:50:44;;;;;;;17.80;16.70;;;15.30;99.90;;;;;;5071694;28;20935;-50
2023/07/08 02:53:10;;;;;;;17.67;16.50;;;15.20;1.00;;;;;;5079501;28;20423;-52
2023/07/08 02:55:35;;;;;;;18.00;16.80;;;15.20;1.00;;;;;;5084953;28;20188;-47
2023/07/08 02:58:01;;;;;;;17.67;16.47;;;15.20;1.00;;;;;;5092110;28;20644;-50
2023/07/08 03:00:27;;;;;;;17.00;15.90;;;15.20;1.00;;;;;;5076028;28;20197;-48
2023/07/08 03:02:52;;;;;;;17.70;16.60;;;15.20;1.00;;;;;;5083346;28;20232;-51
2023/07/08 03:05:18;;;;;;;17.57;16.57;;;15.20;1.00;;;;;;5076267;28;20181;-50
2023/07/08 03:07:44;;;;;;;17.40;16.20;;;15.20;1.00;;;;;;5082931;28;20646;-47
2023/07/08 03:10:09;;;;;;;17.17;16.10;;;15.20;1.00;;;;;;5079260;28;20439;-49
2023/07/08 03:12:35;;;;;;;17.07;15.97;;;15.20;59.10;;;;;;5076516;28;20216;-51
2023/07/08 03:15:01;;;;;;;17.13;16.13;;;15.20;99.90;;;;;;5083739;28;20524;-51
2023/07/08 03:17:26;;;;;;;17.40;16.20;;;15.20;1.00;;;;;;5080762;28;20188;-51
2023/07/08 03:19:52;;;;;;;18.87;17.57;;;15.20;99.90;;;;;;5081674;28;20202;-49
2023/07/08 03:22:18;;;;;;;17.60;16.50;;;15.20;1.00;;;;;;5080342;28;20208;-50
2023/07/08 03:24:47;;;;;;;17.07;15.97;;;15.20;1.00;;;;;;5091128;28;20721;-50
2023/07/08 03:27:14;;;;;;;17.37;16.10;;;15.20;1.00;;;;;;5091413;28;20212;-49
2023/07/08 03:29:40;;;;;;;16.70;15.70;;;15.20;1.00;;;;;;5083413;28;20960;-52
2023/07/08 03:32:08;;;;;;;17.93;16.83;;;15.20;99.90;;;;;;5069178;28;20440;-50
2023/07/08 03:34:34;;;;;;;17.00;15.70;;;15.20;99.90;;;;;;5072653;28;20426;-50
2023/07/08 03:36:59;;;;;;;17.27;16.07;;;15.20;99.90;;;;;;5081156;28;20416;-48
2023/07/08 03:39:25;;;;;;;17.03;15.93;;;15.30;99.90;;;;;;5084161;28;20575;-48
2023/07/08 03:41:52;;;;;;;17.17;16.07;;;15.30;99.90;;;;;;5069509;28;20189;-48
2023/07/08 03:44:20;;;;;;;16.50;15.50;;;15.40;44.90;;;;;;5080558;28;20530;-50
2023/07/08 03:46:50;;;;;;;17.00;15.90;;;15.40;8.20;;;;;;5068070;28;20442;-47
2023/07/08 03:49:24;;;;;;;15.90;15.00;;;15.40;42.90;;;;;;5075067;28;20517;-50
2023/07/08 03:51:53;;;;;;;17.13;16.03;;;15.40;1.00;;;;;;5069888;28;20988;-53
2023/07/08 03:54:20;;;;;;;17.33;16.23;;;15.40;1.00;;;;;;5078417;28;20418;-52
2023/07/08 03:56:46;;;;;;;17.07;16.00;;;15.50;1.00;;;;;;5089200;28;20502;-48
2023/07/08 03:59:11;;;;;;;16.93;15.83;;;15.50;1.00;;;;;;5070268;28;20506;-47
2023/07/08 04:01:40;;;;;;;16.43;15.47;;;15.60;99.90;;;;;;5077162;28;20185;-44
2023/07/08 04:04:09;;;;;;;16.77;15.73;;;15.60;99.90;;;;;;5065338;28;20216;-47
2023/07/08 04:06:35;;;;;;;16.97;15.87;;;15.70;99.80;;;;;;5083372;28;20422;-50
2023/07/08 04:09:00;;;;;;;17.10;16.00;;;15.80;14.50;;;;;;5090572;28;20916;-45
2023/07/08 04:11:26;;;;;;;15.80;14.80;;;15.80;1.00;;;;;;5083920;28;20268;-50
2023/07/08 04:13:52;;;;;;;15.43;14.53;;;15.90;1.00;;;;;;5070185;28;20189;-51
2023/07/08 04:16:30;;;;;;;16.27;15.27;;;16.00;1.00;;;;;;5083281;28;20428;-50
2023/07/08 04:18:56;;;;;;;16.17;15.17;;;16.10;1.00;;;;;;5081876;28;20193;-50
2023/07/08 04:21:24;;;;;;;16.00;14.80;;;16.20;99.90;;;;;;5071248;28;20450;-50
2023/07/08 04:23:51;;;;;;;16.37;15.37;;;16.30;99.90;;;;;;5090152;28;20549;-50
2023/07/08 04:26:18;;;;;;;16.03;14.93;;;16.30;99.90;;;;;;5077690;28;20576;-47
2023/07/08 04:28:44;;;;;;;16.40;15.30;;;16.40;99.90;;;;;;5089172;28;20448;-53
2023/07/08 04:31:10;;;;;;;15.50;14.60;;;16.50;70.40;;;;;;5068365;28;20435;-48
2023/07/08 04:33:36;;;;;;;15.87;14.80;;;16.70;1.00;;;;;;5078238;28;20426;-48
2023/07/08 04:36:02;;;;;;;16.67;15.57;;;16.80;1.00;;;;;;5088344;28;20184;-51
2023/07/08 04:38:28;;;;;;;15.30;14.40;;;16.90;1.00;;;;;;5077664;28;20204;-48
2023/07/08 04:40:54;;;;;;;15.23;14.40;;;17.00;1.00;;;;;;5072992;28;20463;-50
2023/07/08 04:43:21;;;;;;;14.60;13.80;;;17.10;1.00;;;;;;5080875;28;20201;-50
2023/07/08 04:45:53;;;;;;;15.63;14.73;;;17.30;99.90;;;;;;5083081;28;20419;-52
2023/07/08 04:48:21;;;;;;;15.07;14.07;;;17.50;99.90;;;;;;5072971;28;20762;-47
2023/07/08 04:50:50;;;;;;;15.10;14.30;;;17.70;36.60;;;;;;5078674;28;20427;-47
2023/07/08 04:53:16;;;;;;;15.13;14.23;;;17.90;1.00;;;;;;5067369;28;20852;-50
2023/07/08 04:55:49;;;;;;;15.93;14.93;;;18.10;1.00;;;;;;5088246;28;20454;-48
2023/07/08 04:58:15;;;;;;;15.53;14.63;;;18.40;1.00;;;;;;5089878;28;20449;-43
2023/07/08 05:00:40;;;;;;;15.03;14.10;;;18.50;1.00;;;;;;5084946;28;20442;-50
2023/07/08 05:03:06;;;;;;;15.30;14.23;;;18.70;1.00;;;;;;5067568;28;20205;-52
2023/07/08 05:05:31;;;;;;;14.83;13.93;;;18.90;1.00;;;;;;5073412;28;20238;-44
2023/07/08 05:07:57;;;;;;;14.20;13.50;;;19.10;1.00;;;;;;5087854;28;20188;-51
2023/07/08 05:10:23;;;;;;;14.70;13.80;;;19.20;1.00;;;;;;5073138;28;20192;-50
2023/07/08 05:12:48;;;;;;;14.20;13.40;;;19.40;1.00;;;;;;5069379;28;20267;-44
2023/07/08 05:15:15;;;;;;;14.73;13.90;;;19.50;1.00;;;;;;5075839;28;20180;-48
2023/07/08 05:17:41;;;;;;;14.40;13.63;;;19.70;1.00;;;;;;5079982;28;20275;-51
2023/07/08 05:20:09;;;;;;;14.80;13.90;;;19.80;1.00;;;;;;5075306;28;21020;-48
2023/07/08 05:22:35;;;;;;;14.70;13.70;;;19.90;1.00;;;;;;5081380;28;20540;-51
2023/07/08 05:25:03;;;;;;;14.40;13.60;;;20.00;1.00;;;;;;5087569;28;20462;-48
2023/07/08 05:27:29;;;;;;;13.73;12.97;;;20.20;1.00;;;;;;5078426;28;20177;-48
2023/07/08 05:29:55;;;;;;;13.83;13.13;;;20.20;1.00;;;;;;5082928;28;20837;-50
2023/07/08 05:32:20;;;;;;;14.53;13.63;;;20.30;1.00;;;;;;5069368;28;20454;-52
2023/07/08 05:34:46;;;;;;;14.80;13.90;;;20.40;1.00;;;;;;5068605;28;20537;-50
2023/07/08 05:37:13;;;;;;;14.43;13.53;;;20.50;48.20;;;;;;5079764;28;20184;-47
2023/07/08 05:39:39;;;;;;;14.10;13.00;;;20.60;99.90;;;;;;5088814;28;20852;-50
2023/07/08 05:42:05;;;;;;;14.00;13.20;;;20.70;99.90;;;;;;5072194;28;20534;-52
2023/07/08 05:44:30;;;;;;;14.00;13.30;;;20.80;99.90;;;;;;5068257;28;20181;-47
2023/07/08 05:46:56;;;;;;;13.93;13.13;;;21.00;1.00;;;;;;5086101;28;20814;-48
2023/07/08 05:49:22;;;;;;;14.10;13.30;;;21.00;35.90;;;;;;5066688;28;20247;-51
2023/07/08 05:51:47;;;;;;;14.77;13.77;;;21.20;1.00;;;;;;5075650;28;20180;-48
2023/07/08 05:54:14;;;;;;;15.03;14.03;;;21.30;1.00;;;;;;5075705;28;20189;-52
2023/07/08 05:56:40;;;;;;;14.47;13.67;;;21.30;99.90;;;;;;5084953;28;20180;-49
2023/07/08 05:59:05;;;;;;;14.23;13.53;;;21.40;99.90;;;;;;5087750;28;20424;-50
2023/07/08 06:01:32;;;;;;;14.43;13.63;;;21.50;1.00;;;;;;5068148;28;20185;-48
2023/07/08 06:04:00;;;;;;;14.30;13.40;;;21.60;1.00;;;;;;5065384;28;20219;-45
2023/07/08 06:06:27;;;;;;;14.53;13.63;;;21.70;1.00;;;;;;5067553;28;20435;-49
2023/07/08 06:08:54;;;;;;;14.70;13.90;;;21.80;90.90;;;;;;5056621;28;20836;-48
2023/07/08 06:11:21;;;;;;;14.70;13.90;;;21.80;1.00;;;;;;5066731;28;20786;-46
2023/07/08 06:13:47;;;;;;;14.13;13.43;;;21.90;1.00;;;;;;5068296;28;20510;-51
2023/07/08 06:16:13;;;;;;;13.33;12.63;;;22.10;1.00;;;;;;5082507;28;21019;-49
2023/07/08 06:18:38;;;;;;;14.97;14.00;;;22.10;1.00;;;;;;5069484;28;20466;-50
2023/07/08 06:21:05;;;;;;;14.80;14.00;;;22.30;1.00;;;;;;5068927;28;20279;-47
2023/07/08 06:23:30;;;;;;;15.50;14.43;;;22.30;1.00;;;;;;5075550;28;20224;-51
2023/07/08 06:25:56;;;;;;;14.50;13.73;;;22.40;1.00;;;;;;5069249;28;20463;-49
2023/07/08 06:28:22;;;;;;;14.47;13.57;;;22.40;1.00;;;;;;5068627;28;20290;-49
2023/07/08 06:30:48;;;;;;;14.47;13.77;;;22.50;1.00;;;;;;5067510;28;20227;-50
2023/07/08 06:33:14;;;;;;;14.10;13.40;;;22.50;1.00;;;;;;5076102;28;20418;-47
2023/07/08 06:35:40;;;;;;;14.20;13.30;;;22.60;1.00;;;;;;5068304;28;20415;-48
2023/07/08 06:38:06;;;;;;;13.07;12.30;;;22.70;2.60;;;;;;5088272;28;20410;-49
2023/07/08 06:40:33;;;;;;;13.10;12.40;;;22.70;1.30;;;;;;5069856;28;20865;-48
2023/07/08 06:42:58;;;;;;;13.63;12.90;;;22.80;1.00;;;;;;5063109;28;20459;-49
2023/07/08 06:45:24;;;;;;;13.37;12.67;;;22.90;3.70;;;;;;5067368;28;20983;-49
2023/07/08 06:47:50;;;;;;;13.93;13.13;;;23.00;17.20;;;;;;5069265;28;20182;-50
2023/07/08 06:50:15;;;;;;;14.00;13.30;;;23.10;21.50;;;;;;5069027;28;20212;-46
2023/07/08 06:52:41;;;;;;;14.67;13.67;;;23.30;20.50;;;;;;5065806;28;20541;-48
2023/07/08 06:55:09;;;;;;;13.67;12.93;;;23.40;22.00;;;;;;5068592;28;20185;-51
2023/07/08 06:57:35;;;;;;;13.20;12.50;;;23.50;24.30;;;;;;5071213;28;20621;-46
2023/07/08 07:00:02;;;;;;;14.17;13.37;;;23.50;20.90;;;;;;5066312;28;20948;-52
2023/07/08 07:02:28;;;;;;;13.33;12.63;;;23.60;26.50;;;;;;5064401;28;20462;-48
2023/07/08 07:04:55;;;;;;;15.03;14.10;;;23.80;21.10;;;;;;5070591;28;20411;-51
2023/07/08 07:07:20;;;;;;;14.97;14.17;;;23.90;29.80;;;;;;5078684;28;20212;-50
2023/07/08 07:09:46;;;;;;;13.90;13.20;;;24.00;35.30;;;;;;5074784;28;20470;-48
2023/07/08 07:12:12;;;;;;;14.67;13.83;;;24.00;39.20;;;;;;5070269;28;20181;-50
2023/07/08 07:14:37;;;;;;;14.70;13.90;;;24.10;38.40;;;;;;5066941;28;20185;-49
2023/07/08 07:17:03;;;;;;;14.27;13.47;;;24.20;46.80;;;;;;5070582;28;20186;-47
2023/07/08 07:19:28;;;;;;;13.80;13.00;;;24.30;51.10;;;;;;5069160;28;20184;-52
2023/07/08 07:21:54;;;;;;;13.63;12.93;;;24.50;53.40;;;;;;5076311;28;20177;-46
2023/07/08 07:24:20;;;;;;;13.73;13.03;;;24.50;57.40;;;;;;5071695;28;20321;-48
2023/07/08 07:26:45;;;;;;;13.40;12.70;;;24.60;56.20;;;;;;5079608;28;20176;-52
2023/07/08 07:29:11;;;;;;;13.87;13.07;;;24.80;57.50;;;;;;5091351;28;20265;-53
2023/07/08 07:31:39;;;;;;;13.77;12.97;;;24.90;57.00;;;;;;5078097;28;20187;-49
2023/07/08 07:34:05;;;;;;;14.30;13.60;;;25.00;57.20;;;;;;5084411;28;20198;-47
2023/07/08 07:36:31;;;;;;;14.30;13.53;;;25.10;59.10;;;;;;5089911;28;20422;-45
2023/07/08 07:38:56;;;;;;;13.57;12.87;;;25.40;60.50;;;;;;5089754;28;20187;-49
2023/07/08 07:41:23;;;;;;;14.60;13.80;;;25.50;59.40;;;;;;5089530;28;20592;-50
2023/07/08 07:43:48;;;;;;;13.30;12.50;;;25.60;59.00;;;;;;5088115;28;20269;-50
2023/07/08 07:46:14;;;;;;;13.67;12.90;;;25.70;58.50;;;;;;5088564;28;20416;-48
2023/07/08 07:48:40;;;;;;;13.37;12.57;;;25.80;59.80;;;;;;5089363;28;20283;-52
2023/07/08 07:51:10;;;;;;;13.80;13.10;;;25.90;59.10;;;;;;5082089;28;20665;-49
2023/07/08 07:53:38;;;;;;;14.47;13.77;;;26.10;58.10;;;;;;5069742;28;20173;-46
2023/07/08 07:56:05;;;;;;;13.63;12.93;;;26.30;58.40;;;;;;5080949;28;20640;-50
2023/07/08 07:58:31;;;;;;;14.03;13.33;;;26.50;57.80;;;;;;5082007;28;20438;-47
2023/07/08 08:00:57;;;;;;;14.00;13.10;;;26.60;57.00;;;;;;5076195;28;20431;-50
2023/07/08 08:03:23;;;;;;;13.17;12.37;;;26.80;56.40;;;;;;5077283;28;20458;-50
2023/07/08 08:05:49;;;;;;;14.57;13.77;;;26.90;56.60;;;;;;5082274;28;20514;-50
2023/07/08 08:08:15;;;;;;;13.97;13.17;;;27.10;55.90;;;;;;5085167;28;20532;-49
2023/07/08 08:10:42;;;;;;;13.37;12.67;;;27.20;55.80;;;;;;5090587;28;20599;-50
2023/07/08 08:13:08;;;;;;;14.10;13.33;;;27.40;53.90;;;;;;5090512;28;20471;-50
2023/07/08 08:15:34;;;;;;;13.90;13.20;;;27.50;54.00;;;;;;5089941;28;20461;-49
2023/07/08 08:18:00;;;;;;;13.30;12.60;;;27.60;53.30;;;;;;5090340;28;20187;-47
2023/07/08 08:20:26;;;;;;;14.13;13.33;;;27.80;54.00;;;;;;5090627;28;20427;-49
2023/07/08 08:22:52;;;;;;;14.17;13.37;;;28.00;53.30;;;;;;5084111;28;20197;-49
2023/07/08 08:25:19;;;;;;;14.63;13.63;;;28.10;52.00;;;;;;5076464;28;20469;-46
2023/07/08 08:27:45;;;;;;;13.97;13.27;;;28.30;51.90;;;;;;5090124;28;20196;-52
2023/07/08 08:30:11;;;;;;;14.33;13.53;;;28.50;52.00;;;;;;5090190;28;20415;-49
2023/07/08 08:32:37;;;;;;;13.67;12.97;;;28.60;49.70;;;;;;5070020;28;20677;-46
2023/07/08 08:35:03;;;;;;;14.57;13.77;;;28.80;50.70;;;;;;5089055;28;20422;-50
2023/07/08 08:37:29;;;;;;;14.43;13.53;;;28.90;50.00;;;;;;5090489;28;20199;-51
2023/07/08 08:39:54;;;;;;;13.50;12.80;;;29.10;49.00;;;;;;5089893;28;20418;-47
2023/07/08 08:42:29;;;;;;;14.50;13.70;;;29.10;48.00;;;;;;5089796;28;20722;-51
2023/07/08 08:44:57;;;;;;;13.60;12.90;;;29.20;48.70;;;;;;5089725;28;20565;-48
2023/07/08 08:47:38;;;;;;;13.67;12.97;;;29.30;48.30;;;;;;5089896;28;20416;-46
2023/07/08 08:50:47;;;;;;;14.07;13.20;;;29.60;46.70;;;;;;5089934;28;20430;-48
2023/07/08 08:53:16;;;;;;;13.27;12.57;;;29.80;46.20;;;;;;5034965;28;20440;-51
2023/07/08 08:55:42;;;;;;;13.60;12.83;;;30.00;46.10;;;;;;5026835;28;20441;-53
2023/07/08 08:58:16;;;;;;;13.23;12.43;;;30.10;45.10;;;;;;5010337;28;20433;-48
2023/07/08 09:00:55;;;;;;;14.87;14.07;;;30.30;44.90;;;;;;5026940;28;20437;-50
2023/07/08 09:03:37;;;;;;;14.53;13.63;;;30.40;43.50;;;;;;5038005;28;20951;-47
2023/07/08 09:06:19;;;;;;;14.03;13.23;;;30.40;41.70;;;;;;5046982;28;20424;-51
2023/07/08 09:08:46;;;;;;;14.03;13.23;;;30.50;42.00;;;;;;5046709;28;21039;-47
2023/07/08 09:11:30;;;;;;;13.83;13.13;;;30.70;40.70;;;;;;5029974;28;20417;-52
2023/07/08 09:13:56;;;;;;;13.70;12.90;;;30.80;39.90;;;;;;5046438;28;20428;-52
2023/07/08 09:16:58;;;;;;;12.80;12.10;;;30.90;39.30;;;;;;5046626;28;20767;-53
2023/07/08 09:19:28;;;;;;;13.53;12.83;;;31.10;35.90;;;;;;5046546;28;20211;-50
2023/07/08 09:22:12;;;;;;;13.07;12.40;;;31.30;36.50;;;;;;5034517;28;20447;-49
2023/07/08 09:24:47;;;;;;;13.17;12.30;;;31.50;35.10;;;;;;5063295;28;20463;-49
2023/07/08 09:27:14;;;;;;;12.57;11.87;;;31.70;30.60;;;;;;5076641;28;20488;-53
2023/07/08 09:29:39;;;;;;;13.30;12.70;;;31.80;31.10;;;;;;5088973;28;20456;-54
2023/07/08 09:32:17;;;;;;;13.43;12.73;;;31.70;29.30;;;;;;5089036;28;20422;-51
2023/07/08 09:34:56;;;;;;;13.70;13.00;;;31.80;29.80;;;;;;5088328;28;20203;-52
2023/07/08 09:37:27;;;;;;;12.70;12.00;;;31.90;30.00;;;;;;5089197;28;20434;-47
2023/07/08 09:39:54;;;;;;;12.83;12.13;;;32.00;29.80;;;;;;5088884;28;20407;-49
2023/07/08 09:42:24;;;;;;;12.43;11.83;;;32.20;30.00;;;;;;5088813;28;20539;-49
2023/07/08 09:44:55;;;;;;;12.47;11.87;;;32.40;27.40;;;;;;5088957;28;20415;-51
2023/07/08 09:47:36;;;;;;;13.10;12.40;;;32.50;26.00;;;;;;5089638;28;20454;-47
2023/07/08 09:50:18;;;;;;;12.90;12.20;;;32.60;26.20;;;;;;5088846;28;20407;-49
2023/07/08 09:52:43;;;;;;;12.80;12.20;;;32.50;23.20;;;;;;5073467;28;20465;-50
2023/07/08 09:55:12;;;;;;;13.77;13.07;;;32.50;23.40;;;;;;5076687;28;20423;-51
2023/07/08 09:57:38;;;;;;;12.93;12.33;;;32.30;23.70;;;;;;5088561;28;20184;-53
2023/07/08 10:00:12;;;;;;;13.00;12.37;;;32.10;23.70;;;;;;5088926;28;20448;-52
2023/07/08 10:02:53;;;;;;;12.83;12.23;;;32.00;23.40;;;;;;5078026;28;20470;-49
2023/07/08 10:05:42;;;;;;;13.10;12.50;;;31.90;22.60;;;;;;5088904;28;20433;-52
2023/07/08 10:08:28;;;;;;;12.87;12.07;;;31.80;23.30;;;;;;5088910;28;20841;-48
2023/07/08 10:11:04;;;;;;;13.40;12.70;;;31.90;23.10;;;;;;5088525;28;20977;-49
2023/07/08 10:13:41;;;;;;;12.80;12.20;;;32.10;24.40;;;;;;5088583;28;20418;-49
2023/07/08 10:16:13;;;;;;;12.40;11.80;;;32.10;22.70;;;;;;5088477;28;20440;-50
2023/07/08 10:18:39;;;;;;;12.97;12.27;;;32.30;23.60;;;;;;5088540;28;20422;-52
2023/07/08 10:22:02;;;;;;;13.10;12.50;;;32.50;23.40;;;;;;5088523;28;20424;-50
2023/07/08 10:24:53;;;;;;;12.80;12.20;;;32.70;21.80;;;;;;4998048;28;21178;-46
2023/07/08 10:27:36;;;;;;;13.00;12.33;;;33.10;22.30;;;;;;5006050;28;20434;-49
2023/07/08 10:30:07;;;;;;;13.20;12.60;;;33.30;22.80;;;;;;4998911;28;20459;-50
2023/07/08 10:32:33;;;;;;;13.03;12.33;;;33.50;21.20;;;;;;5010764;28;20963;-47
2023/07/08 10:35:04;;;;;;;13.20;12.40;;;33.50;22.00;;;;;;5005720;28;20438;-48
2023/07/08 10:37:57;;;;;;;13.57;12.87;;;33.60;22.60;;;;;;5006109;28;20188;-48
2023/07/08 10:40:38;;;;;;;12.27;11.67;;;33.60;21.00;;;;;;5014113;28;20460;-47
2023/07/08 10:43:15;;;;;;;13.30;12.60;;;33.40;20.80;;;;;;5029197;28;20555;-49
2023/07/08 10:46:20;;;;;;;13.23;12.53;;;33.40;20.50;;;;;;5027712;28;20450;-48
2023/07/08 10:49:04;;;;;;;13.20;12.30;;;33.30;21.10;;;;;;4990782;28;20429;-49
2023/07/08 10:51:33;;;;;;;12.33;11.73;;;33.40;20.30;;;;;;4990696;28;20860;-48
2023/07/08 10:54:19;;;;;;;13.93;12.90;;;33.60;21.70;;;;;;5008551;28;20454;-45
2023/07/08 10:57:12;;;;;;;12.37;11.77;;;33.70;19.80;;;;;;5072510;28;20535;-51
2023/07/08 11:00:03;;;;;;;12.63;12.03;;;33.80;20.80;;;;;;5087605;28;20475;-49
2023/07/08 11:02:57;;;;;;;13.23;12.60;;;34.10;20.30;;;;;;5078956;28;20972;-52
2023/07/08 11:05:42;;;;;;;13.20;12.60;;;34.10;19.60;;;;;;5066195;28;20467;-48
2023/07/08 11:08:20;;;;;;;12.80;12.20;;;34.00;20.10;;;;;;5090807;28;20430;-47
2023/07/08 11:11:08;;;;;;;12.87;12.17;;;33.90;20.40;;;;;;5081578;28;20430;-47
2023/07/08 11:13:38;;;;;;;13.00;12.40;;;33.80;20.10;;;;;;5081450;28;20793;-50
2023/07/08 11:16:18;;;;;;;13.10;12.50;;;33.70;19.60;;;;;;5078766;28;20928;-48
2023/07/08 11:18:50;;;;;;;13.70;13.00;;;33.80;20.80;;;;;;5086422;28;20434;-49
2023/07/08 11:21:27;;;;;;;12.97;12.30;;;33.60;19.40;;;;;;5072556;28;20458;-50
2023/07/08 11:24:02;;;;;;;12.57;11.97;;;33.70;20.20;;;;;;5075144;28;20485;-48
2023/07/08 11:26:51;;;;;;;13.33;12.73;;;33.80;19.70;;;;;;5066664;28;20443;-52
2023/07/08 11:29:49;;;;;;;12.50;11.90;;;33.90;20.20;;;;;;5072750;28;20423;-47
2023/07/08 11:32:19;;;;;;;13.53;12.50;;;33.90;19.70;;;;;;5061449;28;20419;-48
2023/07/08 11:34:47;;;;;;;12.50;11.80;;;34.00;20.10;;;;;;5070617;28;20428;-49
2023/07/08 11:37:14;;;;;;;12.60;12.00;;;34.20;20.80;;;;;;5074571;28;20512;-52
2023/07/08 11:39:52;;;;;;;13.40;12.70;;;34.10;18.90;;;;;;5068164;28;20427;-49
2023/07/08 11:42:36;;;;;;;12.83;12.23;;;34.10;19.00;;;;;;5072573;28;20439;-50
2023/07/08 11:45:13;;;;;;;12.80;12.10;;;34.20;19.70;;;;;;5073100;28;20876;-50
2023/07/08 11:47:46;;;;;;;13.07;12.47;;;34.30;18.90;;;;;;5080125;28;20993;-50
2023/07/08 11:50:22;;;;;;;12.20;11.60;;;34.30;18.70;;;;;;5075150;28;21076;-50
2023/07/08 11:52:58;;;;;;;13.33;12.73;;;34.30;19.80;;;;;;5078000;28;20426;-51
2023/07/08 11:55:40;;;;;;;12.60;11.93;;;34.50;19.60;;;;;;5074034;28;20439;-50
2023/07/08 11:58:08;;;;;;;13.07;12.37;;;34.60;20.00;;;;;;5080770;28;20438;-50
2023/07/08 12:00:34;;;;;;;11.50;11.00;;;34.80;19.70;;;;;;5072190;28;20511;-47
2023/07/08 12:03:21;;;;;;;12.60;12.00;;;34.90;18.50;;;;;;5074288;28;20993;-45
2023/07/08 12:05:47;;;;;;;12.47;11.87;;;35.10;18.80;;;;;;5070507;28;20470;-50
2023/07/08 12:08:15;;;;;;;12.27;11.67;;;35.20;18.10;;;;;;5067644;28;20498;-45
2023/07/08 12:10:49;;;;;;;12.47;11.83;;;35.30;19.30;;;;;;5071232;28;20196;-44
2023/07/08 12:13:18;;;;;;;12.63;12.03;;;35.50;18.70;;;;;;5068099;28;20986;-48
2023/07/08 12:15:44;;;;;;;12.47;11.83;;;35.60;17.60;;;;;;5067889;28;20583;-48
2023/07/08 12:18:16;;;;;;;11.70;11.10;;;35.60;16.60;;;;;;5069522;28;20460;-47
2023/07/08 12:20:48;;;;;;;12.77;12.17;;;35.50;16.60;;;;;;5068972;28;20201;-51
2023/07/08 12:23:18;;;;;;;11.50;11.00;;;35.20;17.60;;;;;;5068617;28;20463;-48
2023/07/08 12:25:44;;;;;;;12.60;12.00;;;35.20;17.20;;;;;;5069026;28;20475;-47
2023/07/08 12:28:12;;;;;;;12.40;11.80;;;35.10;17.80;;;;;;5068282;28;20419;-50
2023/07/08 12:30:39;;;;;;;12.63;12.03;;;35.10;17.00;;;;;;5068562;28;20189;-48
2023/07/08 12:33:12;;;;;;;12.67;12.07;;;35.00;17.70;;;;;;5069781;28;20963;-46
2023/07/08 12:35:38;;;;;;;11.97;11.37;;;35.10;18.50;;;;;;5067861;28;20446;-46
2023/07/08 12:38:13;;;;;;;12.30;11.60;;;35.30;18.90;;;;;;5068491;28;20910;-46
2023/07/08 12:40:40;;;;;;;12.73;12.07;;;35.50;19.40;;;;;;5069726;28;20185;-50
2023/07/08 12:43:09;;;;;;;11.73;11.17;;;35.70;18.50;;;;;;5074589;28;20557;-48
2023/07/08 12:45:36;;;;;;;12.63;12.03;;;35.80;17.90;;;;;;5067403;28;20439;-44